createdAt,value
2022-08-24T00:05:28.686Z,24.10
2022-08-24T00:15:36.395Z,24.00
2022-08-24T00:25:43.849Z,27.30
2022-08-24T00:35:50.855Z,24.90
2022-08-24T00:45:58.084Z,25.40
2022-08-24T00:56:07.983Z,27.00
2022-08-24T01:06:34.900Z,22.80
2022-08-24T01:16:59.629Z,25.30
2022-08-24T01:27:10.174Z,21.60
2022-08-24T01:37:17.713Z,22.00
2022-08-24T01:47:25.657Z,23.30
2022-08-24T01:57:33.267Z,18.00
2022-08-24T02:07:41.171Z,18.80
2022-08-24T02:17:48.393Z,19.50
2022-08-24T02:27:54.489Z,20.80
2022-08-24T02:38:01.683Z,21.10
2022-08-24T02:48:09.160Z,21.70
2022-08-24T02:58:18.113Z,17.00
2022-08-24T03:08:26.431Z,14.90
2022-08-24T03:18:36.913Z,18.40
2022-08-24T03:28:45.299Z,16.90
2022-08-24T03:38:52.300Z,22.60
2022-08-24T03:49:00.184Z,20.40
2022-08-24T03:59:10.277Z,22.90
2022-08-24T04:09:18.457Z,31.10
2022-08-24T04:19:25.436Z,26.90
2022-08-24T04:39:39.688Z,29.10
2022-08-24T04:49:47.881Z,30.40
2022-08-24T04:59:56.558Z,31.40
2022-08-24T05:10:02.827Z,40.30
2022-08-24T05:20:12.137Z,27.80
2022-08-24T05:30:19.742Z,30.30
2022-08-24T05:40:32.551Z,32.40
2022-08-24T05:50:40.685Z,32.30
2022-08-24T06:00:49.796Z,26.60
2022-08-24T06:10:55.779Z,30.00
2022-08-24T06:21:05.563Z,21.50
2022-08-24T06:31:12.540Z,20.60
2022-08-24T06:41:18.801Z,24.40
2022-08-24T06:51:25.688Z,26.30
2022-08-24T07:01:33.765Z,26.20
2022-08-24T07:11:41.589Z,17.90
2022-08-24T07:21:48.724Z,17.70
2022-08-24T07:31:55.711Z,15.40
2022-08-24T07:42:13.039Z,15.50
2022-08-24T07:52:22.605Z,18.40
2022-08-24T08:12:42.973Z,16.70
2022-08-24T08:23:08.425Z,22.40
2022-08-24T08:33:15.658Z,12.40
2022-08-24T08:43:29.519Z,13.90
2022-08-24T08:54:05.702Z,15.80
2022-08-24T09:04:25.517Z,17.40
2022-08-24T09:25:11.580Z,16.50
2022-08-24T09:35:26.631Z,19.10
2022-08-24T09:46:01.248Z,15.10
2022-08-24T09:56:29.566Z,20.30
2022-08-24T10:06:44.619Z,23.80
2022-08-24T10:16:51.014Z,20.40
2022-08-24T10:27:21.407Z,18.00
2022-08-24T10:38:17.128Z,20.40
2022-08-24T10:48:34.571Z,22.60
2022-08-24T11:08:54.293Z,21.00
2022-08-24T11:19:04.001Z,28.60
2022-08-24T11:29:11.155Z,19.90
2022-08-24T11:39:16.361Z,25.10
2022-08-24T11:49:28.035Z,28.00
2022-08-24T12:09:45.996Z,28.50
2022-08-24T12:19:57.361Z,26.60
2022-08-24T12:30:07.275Z,27.90
2022-08-24T12:40:22.824Z,27.90
2022-08-24T12:50:32.539Z,25.40
2022-08-24T13:00:46.408Z,40.40
2022-08-24T13:10:54.060Z,27.90
2022-08-24T13:21:01.432Z,33.40
2022-08-24T13:31:20.752Z,41.40
2022-08-24T13:41:54.549Z,52.10
2022-08-24T13:52:09.519Z,37.80
2022-08-24T14:02:27.840Z,51.30
2022-08-24T14:12:45.848Z,40.60
2022-08-24T14:22:56.429Z,42.70
2022-08-24T14:33:10.947Z,49.60
2022-08-24T14:43:30.603Z,45.20
2022-08-24T14:53:50.416Z,48.80
2022-08-24T15:04:36.191Z,43.00
2022-08-24T15:14:53.854Z,45.50
2022-08-24T15:25:06.133Z,51.20
2022-08-24T15:35:24.387Z,44.20
2022-08-24T15:45:32.102Z,39.30
2022-08-24T15:55:38.265Z,51.30
2022-08-24T16:05:49.432Z,41.00
2022-08-24T16:15:59.393Z,45.60
2022-08-24T16:26:22.367Z,34.10
2022-08-24T16:36:29.765Z,35.50
2022-08-24T16:46:37.059Z,35.80
2022-08-24T17:06:50.824Z,28.00
2022-08-24T17:16:59.100Z,20.90
2022-08-24T17:27:07.356Z,15.40
2022-08-24T17:37:15.326Z,14.70
2022-08-24T17:47:22.629Z,8.70
2022-08-24T17:57:28.967Z,6.90
2022-08-24T18:07:52.588Z,11.40
2022-08-24T18:28:09.199Z,14.20
2022-08-24T18:38:16.695Z,17.10
2022-08-24T18:48:24.988Z,15.10
2022-08-24T18:58:32.398Z,12.40
2022-08-24T19:08:39.735Z,6.30
2022-08-24T19:18:49.347Z,13.40
2022-08-24T19:28:57.294Z,8.00
2022-08-24T19:39:04.993Z,13.10
2022-08-24T19:49:13.371Z,11.20
2022-08-24T19:59:22.541Z,11.20
2022-08-24T20:09:29.132Z,11.40
2022-08-24T20:19:37.764Z,13.60
2022-08-24T20:29:44.964Z,23.70
2022-08-24T20:39:53.518Z,17.40
2022-08-24T20:50:00.812Z,20.90
2022-08-24T21:00:09.742Z,20.50
2022-08-24T21:10:17.956Z,19.30
2022-08-24T21:20:25.745Z,12.30
2022-08-24T21:30:34.983Z,13.00
2022-08-24T21:40:43.331Z,14.10
2022-08-24T21:50:50.936Z,19.80
2022-08-24T22:00:59.287Z,19.70
2022-08-24T22:11:08.391Z,17.50
2022-08-24T22:21:17.667Z,15.00
2022-08-24T22:31:27.035Z,13.40
2022-08-24T22:41:34.467Z,14.10
2022-08-24T22:51:41.728Z,11.80
2022-08-24T23:01:51.876Z,10.70
2022-08-24T23:11:59.732Z,10.80
2022-08-24T23:22:08.829Z,16.20
2022-08-24T23:32:18.290Z,21.50
2022-08-24T23:42:25.694Z,18.50
2022-08-24T23:52:32.937Z,16.60
